createdAt,value
2019-03-01T00:00:27.960Z,9.47
2019-03-01T00:02:54.654Z,9.47
2019-03-01T00:05:31.205Z,9.46
2019-03-01T00:08:26.371Z,9.43
2019-03-01T00:11:11.444Z,9.42
2019-03-01T00:14:03.704Z,9.38
2019-03-01T00:16:48.558Z,9.33
2019-03-01T00:19:25.969Z,9.29
2019-03-01T00:22:08.201Z,9.27
2019-03-01T00:25:06.387Z,9.25
2019-03-01T00:28:04.465Z,9.24
2019-03-01T00:30:56.603Z,9.23
2019-03-01T00:33:51.844Z,9.19
2019-03-01T00:36:33.161Z,9.14
2019-03-01T00:39:13.521Z,9.10
2019-03-01T00:41:59.613Z,9.06
2019-03-01T00:44:39.266Z,9.02
2019-03-01T00:47:05.854Z,8.97
2019-03-01T00:49:32.463Z,8.94
2019-03-01T00:51:59.083Z,8.91
2019-03-01T00:54:25.682Z,8.90
2019-03-01T00:56:52.302Z,8.94
2019-03-01T00:59:18.897Z,8.98
2019-03-01T01:01:45.601Z,9.06
2019-03-01T01:04:12.188Z,9.07
2019-03-01T01:06:38.802Z,9.10
2019-03-01T01:09:05.544Z,9.12
2019-03-01T01:11:32.141Z,9.12
2019-03-01T01:13:58.724Z,9.14
2019-03-01T01:16:25.322Z,9.12
2019-03-01T01:18:51.914Z,9.09
2019-03-01T01:21:18.526Z,9.06
2019-03-01T01:23:45.210Z,9.03
2019-03-01T01:26:11.802Z,9.00
2019-03-01T01:28:38.497Z,8.98
2019-03-01T01:31:05.089Z,8.93
2019-03-01T01:33:31.702Z,8.87
2019-03-01T01:35:58.298Z,8.83
2019-03-01T01:38:25.044Z,8.77
2019-03-01T01:40:51.684Z,8.71
2019-03-01T01:43:18.274Z,8.66
2019-03-01T01:45:44.878Z,8.62
2019-03-01T01:48:11.499Z,8.57
2019-03-01T01:50:38.194Z,8.54
2019-03-01T01:53:04.895Z,8.50
2019-03-01T01:55:31.479Z,8.45
2019-03-01T01:57:58.087Z,8.40
2019-03-01T02:00:24.720Z,8.36
2019-03-01T02:02:51.312Z,8.33
2019-03-01T02:05:18.115Z,8.30
2019-03-01T02:07:44.715Z,8.31
2019-03-01T02:10:11.322Z,8.29
2019-03-01T02:12:38.009Z,8.27
2019-03-01T02:15:05.204Z,8.23
2019-03-01T02:17:31.829Z,8.18
2019-03-01T02:19:58.425Z,8.13
2019-03-01T02:22:25.034Z,8.10
2019-03-01T02:24:51.624Z,8.09
2019-03-01T02:27:36.346Z,8.06
2019-03-01T02:30:04.628Z,8.05
2019-03-01T02:32:41.191Z,7.99
2019-03-01T02:35:08.764Z,7.91
2019-03-01T02:37:35.462Z,7.85
2019-03-01T02:40:02.070Z,7.79
2019-03-01T02:42:28.646Z,7.74
2019-03-01T02:44:55.363Z,7.69
2019-03-01T02:47:21.955Z,7.65
2019-03-01T02:49:48.551Z,7.65
2019-03-01T02:52:15.235Z,7.62
2019-03-01T02:54:41.855Z,7.60
2019-03-01T02:57:08.462Z,7.64
2019-03-01T02:59:35.062Z,7.69
2019-03-01T03:02:01.746Z,7.73
2019-03-01T03:04:28.527Z,7.79
2019-03-01T03:07:00.347Z,7.82
2019-03-01T03:09:26.945Z,7.88
2019-03-01T03:11:53.645Z,7.92
2019-03-01T03:14:20.235Z,7.93
2019-03-01T03:16:46.939Z,7.96
2019-03-01T03:19:13.531Z,7.98
2019-03-01T03:21:40.105Z,7.99
2019-03-01T03:24:06.695Z,7.99
2019-03-01T03:26:33.295Z,8.00
2019-03-01T03:28:59.890Z,7.98
2019-03-01T03:31:26.522Z,7.95
2019-03-01T03:33:53.119Z,7.92
2019-03-01T03:36:19.826Z,7.87
2019-03-01T03:38:46.514Z,7.85
2019-03-01T03:41:13.197Z,7.90
2019-03-01T03:43:39.821Z,7.93
2019-03-01T03:46:06.406Z,7.94
2019-03-01T03:48:33.005Z,7.95
2019-03-01T03:50:59.608Z,7.95
2019-03-01T03:53:26.288Z,7.93
2019-03-01T03:55:52.894Z,7.92
2019-03-01T03:58:19.694Z,7.90
2019-03-01T04:00:46.517Z,7.93
2019-03-01T04:03:13.116Z,7.95
2019-03-01T04:05:39.837Z,7.97
2019-03-01T04:08:06.734Z,7.98
2019-03-01T04:10:33.353Z,7.97
2019-03-01T04:13:00.050Z,7.96
2019-03-01T04:15:26.634Z,7.96
2019-03-01T04:17:53.257Z,7.96
2019-03-01T04:20:19.852Z,7.98
2019-03-01T04:22:46.562Z,7.98
2019-03-01T04:25:13.839Z,7.95
2019-03-01T04:27:40.558Z,7.94
2019-03-01T04:30:08.930Z,7.95
2019-03-01T04:32:35.623Z,7.94
2019-03-01T04:35:02.331Z,7.93
2019-03-01T04:37:28.941Z,7.93
2019-03-01T04:39:55.531Z,7.93
2019-03-01T04:42:22.122Z,7.93
2019-03-01T04:44:48.713Z,7.93
2019-03-01T04:47:15.313Z,7.94
2019-03-01T04:49:41.915Z,7.92
2019-03-01T04:52:37.234Z,7.87
2019-03-01T04:55:08.080Z,7.93
2019-03-01T04:57:34.711Z,7.91
2019-03-01T05:00:01.322Z,7.84
2019-03-01T05:02:28.009Z,7.79
2019-03-01T05:04:54.593Z,7.75
2019-03-01T05:07:21.182Z,7.69
2019-03-01T05:09:47.775Z,7.62
2019-03-01T05:12:14.484Z,7.55
2019-03-01T05:14:41.115Z,7.47
2019-03-01T05:17:07.705Z,7.41
2019-03-01T05:19:34.393Z,7.35
2019-03-01T05:22:00.984Z,7.30
2019-03-01T05:24:27.579Z,7.26
2019-03-01T05:26:54.275Z,7.23
2019-03-01T05:29:20.881Z,7.19
2019-03-01T05:31:47.477Z,7.15
2019-03-01T05:34:14.068Z,7.11
2019-03-01T05:36:40.662Z,7.09
2019-03-01T05:39:07.293Z,7.06
2019-03-01T05:41:33.892Z,7.04
2019-03-01T05:44:00.494Z,7.02
2019-03-01T05:46:27.116Z,7.00
2019-03-01T05:48:53.826Z,6.97
2019-03-01T05:51:20.434Z,6.94
2019-03-01T05:53:47.020Z,6.92
2019-03-01T05:56:13.656Z,6.90
2019-03-01T05:58:42.087Z,6.88
2019-03-01T06:01:10.802Z,6.84
2019-03-01T06:04:03.024Z,6.84
2019-03-01T06:06:55.323Z,6.84
2019-03-01T06:09:41.426Z,6.83
2019-03-01T06:12:30.566Z,6.81
2019-03-01T06:15:01.522Z,6.80
2019-03-01T06:17:36.997Z,6.81
2019-03-01T06:20:13.038Z,6.81
2019-03-01T06:22:58.459Z,6.80
2019-03-01T06:25:29.466Z,6.81
2019-03-01T06:28:24.757Z,6.81
2019-03-01T06:31:07.020Z,6.81
2019-03-01T06:33:55.632Z,6.82
2019-03-01T06:36:35.315Z,6.82
2019-03-01T06:39:23.449Z,6.83
2019-03-01T06:42:15.830Z,6.86
2019-03-01T06:45:20.118Z,6.87
2019-03-01T06:47:50.263Z,6.88
2019-03-01T06:50:21.448Z,6.87
2019-03-01T06:52:48.190Z,6.86
2019-03-01T06:55:31.183Z,6.80
2019-03-01T06:57:57.912Z,6.76
2019-03-01T07:00:24.721Z,6.73
2019-03-01T07:02:56.179Z,6.68
2019-03-01T07:05:22.801Z,6.66
2019-03-01T07:07:49.418Z,6.65
2019-03-01T07:10:18.074Z,6.62
2019-03-01T07:12:44.767Z,6.59
2019-03-01T07:15:11.487Z,6.58
2019-03-01T07:17:38.099Z,6.58
2019-03-01T07:20:04.889Z,6.58
2019-03-01T07:22:31.548Z,6.58
2019-03-01T07:24:58.207Z,6.59
2019-03-01T07:27:24.797Z,6.61
2019-03-01T07:29:51.416Z,6.64
2019-03-01T07:32:18.053Z,6.66
2019-03-01T07:34:44.707Z,6.69
2019-03-01T07:37:11.407Z,6.75
2019-03-01T07:39:38.034Z,6.81
2019-03-01T07:42:04.674Z,6.86
2019-03-01T07:44:31.381Z,6.90
2019-03-01T07:46:57.997Z,6.93
2019-03-01T07:49:24.632Z,7.00
2019-03-01T07:51:51.247Z,7.07
2019-03-01T07:54:18.156Z,7.15
2019-03-01T07:56:44.789Z,7.25
2019-03-01T07:59:11.446Z,7.43
2019-03-01T08:01:38.181Z,7.82
2019-03-01T08:04:04.795Z,8.31
2019-03-01T08:06:31.485Z,8.68
2019-03-01T08:08:58.112Z,9.03
2019-03-01T08:11:24.851Z,9.31
2019-03-01T08:13:53.119Z,9.33
2019-03-01T08:16:21.273Z,9.43
2019-03-01T08:18:48.291Z,9.35
2019-03-01T08:21:15.052Z,9.11
2019-03-01T08:23:41.741Z,8.86
2019-03-01T08:26:08.359Z,8.74
2019-03-01T08:28:35.082Z,8.42
2019-03-01T08:31:01.711Z,8.29
2019-03-01T08:33:28.362Z,8.03
2019-03-01T08:35:54.990Z,7.84
2019-03-01T08:38:21.724Z,7.75
2019-03-01T08:40:49.883Z,7.73
2019-03-01T08:43:16.937Z,7.70
2019-03-01T08:45:43.542Z,7.64
2019-03-01T08:48:10.266Z,7.62
2019-03-01T08:50:36.991Z,7.54
2019-03-01T08:53:03.730Z,7.44
2019-03-01T08:55:30.460Z,7.41
2019-03-01T08:57:59.697Z,7.38
2019-03-01T09:00:28.039Z,7.35
2019-03-01T09:02:55.815Z,7.34
2019-03-01T09:05:22.414Z,7.30
2019-03-01T09:07:49.030Z,7.27
2019-03-01T09:10:16.270Z,7.32
2019-03-01T09:12:42.973Z,7.36
2019-03-01T09:15:10.578Z,7.40
2019-03-01T09:17:37.300Z,7.48
2019-03-01T09:20:04.228Z,7.55
2019-03-01T09:22:30.979Z,7.67
2019-03-01T09:24:57.691Z,7.73
2019-03-01T09:27:26.818Z,7.79
2019-03-01T09:29:52.927Z,7.82
2019-03-01T09:32:19.565Z,7.84
2019-03-01T09:34:48.629Z,7.89
2019-03-01T09:37:15.339Z,7.93
2019-03-01T09:39:42.053Z,8.02
2019-03-01T09:42:08.675Z,7.99
2019-03-01T09:44:38.313Z,7.88
2019-03-01T09:47:03.871Z,7.76
2019-03-01T09:49:30.593Z,7.64
2019-03-01T09:51:57.301Z,7.58
2019-03-01T09:54:23.940Z,7.56
2019-03-01T09:56:50.547Z,7.46
2019-03-01T09:59:17.177Z,7.37
2019-03-01T10:01:43.922Z,7.42
2019-03-01T10:04:10.627Z,7.49
2019-03-01T10:06:38.382Z,7.52
2019-03-01T10:09:09.207Z,7.49
2019-03-01T10:11:35.923Z,7.47
2019-03-01T10:14:02.540Z,7.44
2019-03-01T10:16:29.151Z,7.45
2019-03-01T10:18:55.905Z,7.47
2019-03-01T10:21:22.602Z,7.49
2019-03-01T10:23:49.209Z,7.50
2019-03-01T10:26:15.838Z,7.49
2019-03-01T10:28:42.474Z,7.49
2019-03-01T10:31:09.095Z,7.48
2019-03-01T10:33:35.802Z,7.44
2019-03-01T10:36:02.417Z,7.50
2019-03-01T10:38:29.116Z,7.58
2019-03-01T10:40:55.718Z,7.62
2019-03-01T10:43:23.480Z,7.68
2019-03-01T10:45:50.272Z,7.74
2019-03-01T10:48:17.020Z,7.82
2019-03-01T10:50:43.652Z,7.98
2019-03-01T10:53:10.379Z,8.14
2019-03-01T10:55:37.061Z,8.16
2019-03-01T10:58:03.658Z,8.23
2019-03-01T11:00:30.403Z,8.29
2019-03-01T11:02:57.006Z,8.30
2019-03-01T11:05:23.637Z,8.26
2019-03-01T11:07:50.384Z,8.27
2019-03-01T11:10:23.933Z,8.31
2019-03-01T11:12:50.578Z,8.35
2019-03-01T11:15:17.312Z,8.38
2019-03-01T11:17:44.032Z,8.38
2019-03-01T11:20:10.883Z,8.31
2019-03-01T11:22:37.608Z,8.23
2019-03-01T11:25:04.890Z,8.15
2019-03-01T11:27:31.627Z,8.10
2019-03-01T11:29:58.315Z,8.02
2019-03-01T11:32:24.945Z,7.93
2019-03-01T11:34:51.537Z,7.84
2019-03-01T11:37:18.217Z,7.80
2019-03-01T11:39:44.910Z,7.86
2019-03-01T11:42:11.659Z,7.89
2019-03-01T11:44:38.354Z,7.93
2019-03-01T11:47:05.037Z,7.87
2019-03-01T11:49:31.741Z,7.82
2019-03-01T11:51:58.395Z,7.80
2019-03-01T11:54:25.105Z,7.88
2019-03-01T11:56:53.632Z,7.95
2019-03-01T11:59:20.244Z,7.96
2019-03-01T12:01:47.085Z,8.02
2019-03-01T12:04:13.703Z,8.07
2019-03-01T12:06:40.446Z,8.06
2019-03-01T12:09:07.142Z,8.24
2019-03-01T12:11:33.738Z,8.36
2019-03-01T12:14:00.468Z,8.38
2019-03-01T12:16:27.091Z,8.22
2019-03-01T12:18:53.684Z,8.13
2019-03-01T12:21:20.290Z,8.17
2019-03-01T12:23:46.894Z,8.26
2019-03-01T12:26:13.558Z,8.30
2019-03-01T12:28:40.272Z,8.18
2019-03-01T12:31:06.870Z,8.04
2019-03-01T12:33:33.476Z,7.99
2019-03-01T12:36:00.098Z,7.92
2019-03-01T12:38:26.707Z,8.01
2019-03-01T12:40:53.332Z,8.12
2019-03-01T12:43:20.028Z,8.19
2019-03-01T12:45:46.632Z,8.18
2019-03-01T12:48:13.444Z,8.20
2019-03-01T12:50:40.058Z,8.20
2019-03-01T12:53:06.749Z,8.21
2019-03-01T12:55:33.352Z,8.18
2019-03-01T12:57:59.949Z,8.12
2019-03-01T13:00:27.492Z,8.04
2019-03-01T13:02:54.118Z,7.98
2019-03-01T13:05:20.838Z,8.04
2019-03-01T13:07:47.509Z,7.99
2019-03-01T13:10:36.675Z,7.98
2019-03-01T13:13:08.978Z,7.94
2019-03-01T13:15:35.615Z,7.80
2019-03-01T13:18:03.442Z,7.74
2019-03-01T13:20:38.039Z,7.67
2019-03-01T13:23:11.988Z,7.60
2019-03-01T13:25:38.593Z,7.60
2019-03-01T13:28:05.342Z,7.58
2019-03-01T13:30:32.540Z,7.57
2019-03-01T13:33:10.270Z,7.48
2019-03-01T13:35:36.919Z,7.44
2019-03-01T13:38:04.022Z,7.44
2019-03-01T13:40:38.318Z,7.49
2019-03-01T13:43:04.921Z,7.50
2019-03-01T13:45:31.636Z,7.47
2019-03-01T13:47:58.351Z,7.52
2019-03-01T13:50:24.961Z,7.51
2019-03-01T13:52:51.670Z,7.52
2019-03-01T13:55:21.561Z,7.48
2019-03-01T13:57:53.370Z,7.44
2019-03-01T14:00:20.098Z,7.36
2019-03-01T14:02:47.880Z,7.30
2019-03-01T14:05:17.123Z,7.25
2019-03-01T14:07:55.563Z,7.24
2019-03-01T14:10:24.250Z,7.23
2019-03-01T14:12:50.895Z,7.19
2019-03-01T14:15:17.543Z,7.20
2019-03-01T14:17:44.215Z,7.18
2019-03-01T14:20:21.079Z,7.17
2019-03-01T14:22:54.591Z,7.13
2019-03-01T14:25:41.645Z,7.11
2019-03-01T14:28:15.783Z,7.10
2019-03-01T14:30:42.511Z,7.10
2019-03-01T14:33:11.087Z,7.05
2019-03-01T14:35:37.816Z,7.02
2019-03-01T14:38:04.554Z,7.00
2019-03-01T14:40:31.283Z,6.98
2019-03-01T14:43:00.871Z,6.97
2019-03-01T14:45:32.234Z,6.99
2019-03-01T14:47:58.868Z,7.02
2019-03-01T14:50:25.502Z,7.06
2019-03-01T14:52:56.734Z,7.07
2019-03-01T14:55:28.698Z,7.06
2019-03-01T14:57:57.194Z,7.07
2019-03-01T15:00:49.598Z,7.08
2019-03-01T15:03:38.084Z,7.10
2019-03-01T15:06:05.524Z,7.15
2019-03-01T15:08:32.170Z,7.19
2019-03-01T15:10:59.764Z,7.19
2019-03-01T15:13:27.876Z,7.19
2019-03-01T15:15:54.632Z,7.20
2019-03-01T15:18:21.240Z,7.21
2019-03-01T15:20:47.894Z,7.23
2019-03-01T15:23:15.174Z,7.27
2019-03-01T15:25:47.482Z,7.32
2019-03-01T15:28:13.285Z,7.31
2019-03-01T15:30:38.877Z,7.32
2019-03-01T15:33:08.508Z,7.35
2019-03-01T15:35:36.394Z,7.37
2019-03-01T15:38:02.695Z,7.37
2019-03-01T15:40:31.501Z,7.38
2019-03-01T15:43:04.409Z,7.37
2019-03-01T15:45:31.097Z,7.37
2019-03-01T15:47:58.750Z,7.36
2019-03-01T15:50:32.826Z,7.33
2019-03-01T15:52:59.537Z,7.30
2019-03-01T15:55:26.146Z,7.28
2019-03-01T15:57:53.058Z,7.26
2019-03-01T16:00:29.566Z,7.24
2019-03-01T16:03:02.623Z,7.24
2019-03-01T16:05:29.253Z,7.22
2019-03-01T16:07:55.848Z,7.23
2019-03-01T16:10:22.986Z,7.21
2019-03-01T16:12:49.606Z,7.17
2019-03-01T16:15:16.244Z,7.17
2019-03-01T16:17:42.979Z,7.18
2019-03-01T16:20:10.469Z,7.18
2019-03-01T16:22:37.081Z,7.15
2019-03-01T16:25:04.292Z,7.13
2019-03-01T16:27:30.909Z,7.14
2019-03-01T16:29:57.599Z,7.12
2019-03-01T16:32:24.226Z,7.10
2019-03-01T16:34:50.892Z,7.08
2019-03-01T16:37:17.616Z,7.07
2019-03-01T16:39:44.333Z,7.04
2019-03-01T16:42:11.060Z,7.03
2019-03-01T16:44:37.653Z,7.02
2019-03-01T16:47:06.789Z,7.01
2019-03-01T16:49:32.811Z,6.98
2019-03-01T16:51:59.583Z,6.98
2019-03-01T16:54:26.221Z,6.97
2019-03-01T16:56:52.820Z,6.94
2019-03-01T16:59:19.426Z,6.92
2019-03-01T17:01:46.044Z,6.90
2019-03-01T17:04:12.644Z,6.87
2019-03-01T17:06:39.259Z,6.82
2019-03-01T17:09:06.555Z,6.78
2019-03-01T17:11:33.167Z,6.74
2019-03-01T17:14:02.664Z,6.72
2019-03-01T17:16:34.245Z,6.73
2019-03-01T17:19:00.955Z,6.71
2019-03-01T17:21:27.559Z,6.70
2019-03-01T17:23:54.744Z,6.69
2019-03-01T17:26:21.367Z,6.67
2019-03-01T17:28:49.722Z,6.66
2019-03-01T17:31:44.256Z,6.66
2019-03-01T17:34:10.879Z,6.65
2019-03-01T17:36:37.492Z,6.65
2019-03-01T17:39:05.125Z,6.63
2019-03-01T17:41:31.842Z,6.62
2019-03-01T17:43:58.453Z,6.60
2019-03-01T17:46:25.539Z,6.60
2019-03-01T17:49:00.326Z,6.56
2019-03-01T17:51:28.826Z,6.54
2019-03-01T17:54:02.295Z,6.53
2019-03-01T17:56:29.027Z,6.52
2019-03-01T17:58:55.668Z,6.52
2019-03-01T18:01:22.472Z,6.50
2019-03-01T18:03:49.167Z,6.49
2019-03-01T18:06:16.854Z,6.51
2019-03-01T18:08:44.386Z,6.51
2019-03-01T18:11:11.092Z,6.49
2019-03-01T18:13:37.803Z,6.50
2019-03-01T18:16:04.504Z,6.49
2019-03-01T18:18:48.778Z,6.49
2019-03-01T18:21:13.095Z,6.46
2019-03-01T18:23:47.317Z,6.43
2019-03-01T18:26:14.103Z,6.43
2019-03-01T18:28:40.831Z,6.41
2019-03-01T18:31:07.464Z,6.41
2019-03-01T18:33:34.186Z,6.40
2019-03-01T18:36:00.938Z,6.39
2019-03-01T18:38:31.317Z,6.37
2019-03-01T18:41:02.718Z,6.36
2019-03-01T18:43:29.453Z,6.36
2019-03-01T18:45:56.158Z,6.35
2019-03-01T18:48:22.911Z,6.35
2019-03-01T18:50:49.573Z,6.34
2019-03-01T18:53:16.315Z,6.35
2019-03-01T18:55:43.036Z,6.32
2019-03-01T18:58:10.489Z,6.30
2019-03-01T19:00:38.499Z,6.28
2019-03-01T19:03:05.507Z,6.26
2019-03-01T19:05:43.493Z,6.27
2019-03-01T19:08:10.191Z,6.24
2019-03-01T19:10:36.912Z,6.23
2019-03-01T19:13:03.553Z,6.23
2019-03-01T19:15:30.174Z,6.21
2019-03-01T19:17:56.825Z,6.17
2019-03-01T19:20:24.220Z,6.15
2019-03-01T19:22:50.935Z,6.11
2019-03-01T19:25:31.663Z,6.08
2019-03-01T19:27:58.360Z,6.05
2019-03-01T19:30:25.083Z,6.02
2019-03-01T19:32:51.840Z,5.98
2019-03-01T19:35:18.849Z,5.98
2019-03-01T19:37:45.850Z,5.96
2019-03-01T19:40:23.659Z,5.96
2019-03-01T19:42:50.290Z,5.97
2019-03-01T19:45:17.022Z,5.96
2019-03-01T19:47:43.827Z,5.98
2019-03-01T19:50:11.426Z,5.98
2019-03-01T19:52:38.195Z,5.99
2019-03-01T19:55:07.955Z,5.97
2019-03-01T19:57:33.704Z,5.97
2019-03-01T20:00:00.377Z,5.94
2019-03-01T20:02:27.874Z,5.94
2019-03-01T20:04:55.868Z,5.94
2019-03-01T20:07:23.198Z,5.93
2019-03-01T20:09:50.001Z,5.93
2019-03-01T20:12:18.283Z,5.93
2019-03-01T20:14:45.188Z,5.94
2019-03-01T20:17:11.922Z,5.96
2019-03-01T20:19:38.649Z,5.96
2019-03-01T20:22:05.438Z,5.96
2019-03-01T20:24:32.069Z,5.97
2019-03-01T20:26:59.884Z,5.97
2019-03-01T20:29:33.632Z,5.98
2019-03-01T20:32:00.249Z,5.98
2019-03-01T20:34:26.963Z,5.97
2019-03-01T20:36:53.873Z,5.96
2019-03-01T20:39:28.331Z,5.93
2019-03-01T20:41:55.068Z,5.90
2019-03-01T20:44:21.830Z,5.88
2019-03-01T20:46:48.537Z,5.86
2019-03-01T20:49:15.147Z,5.86
2019-03-01T20:51:41.787Z,5.84
2019-03-01T20:54:08.511Z,5.82
2019-03-01T20:56:35.128Z,5.80
2019-03-01T20:59:01.831Z,5.81
2019-03-01T21:01:28.425Z,5.81
2019-03-01T21:03:55.059Z,5.80
2019-03-01T21:06:21.651Z,5.81
2019-03-01T21:08:48.277Z,5.79
2019-03-01T21:11:14.864Z,5.79
2019-03-01T21:13:41.461Z,5.80
2019-03-01T21:16:08.073Z,5.80
2019-03-01T21:18:34.853Z,5.79
2019-03-01T21:21:01.551Z,5.79
2019-03-01T21:23:28.238Z,5.78
2019-03-01T21:25:54.855Z,5.79
2019-03-01T21:28:21.470Z,5.79
2019-03-01T21:30:48.170Z,5.80
2019-03-01T21:33:14.786Z,5.83
2019-03-01T21:35:41.509Z,5.84
2019-03-01T21:38:10.618Z,5.86
2019-03-01T21:40:36.647Z,5.87
2019-03-01T21:43:03.271Z,5.88
2019-03-01T21:45:29.981Z,5.88
2019-03-01T21:47:56.594Z,5.87
2019-03-01T21:50:23.200Z,5.87
2019-03-01T21:52:49.841Z,5.87
2019-03-01T21:55:16.715Z,5.86
2019-03-01T21:57:43.410Z,5.87
2019-03-01T22:00:14.209Z,5.86
2019-03-01T22:02:40.834Z,5.87
2019-03-01T22:05:10.306Z,5.89
2019-03-01T22:07:37.201Z,5.89
2019-03-01T22:10:05.244Z,5.89
2019-03-01T22:12:31.931Z,5.91
2019-03-01T22:14:58.765Z,5.93
2019-03-01T22:17:25.449Z,5.94
2019-03-01T22:19:52.324Z,5.92
2019-03-01T22:22:19.010Z,5.92
2019-03-01T22:24:45.768Z,5.92
2019-03-01T22:27:12.454Z,5.93
2019-03-01T22:29:39.129Z,5.92
2019-03-01T22:32:07.404Z,5.92
2019-03-01T22:34:44.547Z,5.91
2019-03-01T22:37:11.338Z,5.90
2019-03-01T22:39:37.946Z,5.90
2019-03-01T22:42:04.579Z,5.92
2019-03-01T22:44:33.299Z,5.96
2019-03-01T22:47:06.181Z,5.96
2019-03-01T22:49:32.876Z,5.99
2019-03-01T22:51:59.573Z,6.03
2019-03-01T22:54:26.267Z,6.08
2019-03-01T22:56:52.867Z,6.08
2019-03-01T22:59:19.627Z,6.06
2019-03-01T23:01:48.505Z,6.06
2019-03-01T23:04:15.180Z,6.06
2019-03-01T23:06:41.802Z,6.05
2019-03-01T23:11:48.765Z,6.01
2019-03-01T23:14:15.477Z,5.98
2019-03-01T23:16:42.077Z,5.97
2019-03-01T23:19:08.762Z,5.95
2019-03-01T23:21:42.591Z,5.92
2019-03-01T23:24:09.202Z,5.90
2019-03-01T23:26:35.913Z,5.89
2019-03-01T23:29:02.509Z,5.89
2019-03-01T23:31:29.123Z,5.90
2019-03-01T23:33:55.803Z,5.89
2019-03-01T23:36:25.001Z,5.92
2019-03-01T23:38:57.002Z,5.92
2019-03-01T23:41:23.613Z,5.94
2019-03-01T23:43:50.313Z,5.95
2019-03-01T23:46:16.937Z,5.96
2019-03-01T23:48:45.585Z,5.95
2019-03-01T23:51:18.155Z,5.94
2019-03-01T23:53:44.879Z,5.93
2019-03-01T23:56:11.557Z,5.92
2019-03-01T23:58:38.173Z,5.92
